Time;durP1;ratioP1;P1;durP2;ratioP2;P2;SDS_P1;SDS_P2;PMS_P1;PMS_P2;Temp;Humidity;BMP_temperature;BMP_pressure;BME280_temperature;BME280_humidity;BME280_pressure;Samples;Min_cycle;Max_cycle;Signal;HPM_P1;HPM_P2
2021/10/19 00:00:27;;;;;;;25.70;20.30;;;;;;;;;;4907336;29;20809;-85
2021/10/19 00:02:54;;;;;;;23.15;19.48;;;;;;;;;;4908085;29;20419;-85
2021/10/19 00:05:21;;;;;;;26.67;20.95;;;;;;;;;;4908046;29;20420;-88
2021/10/19 00:07:50;;;;;;;26.10;20.17;;;;;;;;;;4907693;29;20687;-87
2021/10/19 00:10:17;;;;;;;26.33;20.80;;;;;;;;;;4907689;29;20920;-87
2021/10/19 00:12:45;;;;;;;24.88;20.67;;;;;;;;;;4907725;29;20424;-87
2021/10/19 00:15:14;;;;;;;26.83;21.08;;;;;;;;;;4907735;29;20427;-86
2021/10/19 00:17:43;;;;;;;25.05;21.02;;;;;;;;;;4908020;29;20466;-87
2021/10/19 00:20:11;;;;;;;23.70;19.95;;;;;;;;;;4906248;29;20431;-87
2021/10/19 00:22:38;;;;;;;24.55;20.10;;;;;;;;;;4907051;29;20412;-86
2021/10/19 00:25:09;;;;;;;23.75;19.65;;;;;;;;;;4907969;29;20407;-87
2021/10/19 00:27:37;;;;;;;25.75;20.17;;;;;;;;;;4907919;29;20430;-87
2021/10/19 00:30:07;;;;;;;23.60;19.20;;;;;;;;;;4908185;29;20416;-86
2021/10/19 00:32:34;;;;;;;23.23;19.23;;;;;;;;;;4904872;29;20419;-86
2021/10/19 00:35:01;;;;;;;24.52;19.05;;;;;;;;;;4906547;29;20479;-87
2021/10/19 00:37:28;;;;;;;22.33;18.67;;;;;;;;;;4906461;29;21231;-87
2021/10/19 00:39:54;;;;;;;23.05;18.95;;;;;;;;;;4907498;29;20419;-87
2021/10/19 00:42:23;;;;;;;22.65;18.77;;;;;;;;;;4907991;29;20899;-87
2021/10/19 00:44:50;;;;;;;22.35;17.60;;;;;;;;;;4907755;29;20419;-86
2021/10/19 00:47:21;;;;;;;22.80;17.60;;;;;;;;;;4908192;29;20466;-87
2021/10/19 00:49:48;;;;;;;23.10;17.50;;;;;;;;;;4907195;29;20450;-86
2021/10/19 00:52:16;;;;;;;19.38;17.27;;;;;;;;;;4908826;29;20478;-87
2021/10/19 00:54:44;;;;;;;20.00;16.63;;;;;;;;;;4907078;29;20431;-87
2021/10/19 00:57:11;;;;;;;19.48;15.75;;;;;;;;;;4913533;29;20418;-86
2021/10/19 00:59:44;;;;;;;20.27;16.63;;;;;;;;;;4912404;29;20422;-87
2021/10/19 01:02:10;;;;;;;19.30;15.77;;;;;;;;;;4905229;29;20418;-87
2021/10/19 01:04:37;;;;;;;19.20;15.52;;;;;;;;;;4903284;29;20418;-86
2021/10/19 01:07:05;;;;;;;19.50;15.50;;;;;;;;;;4906723;29;20898;-87
2021/10/19 01:09:32;;;;;;;20.33;15.50;;;;;;;;;;4907331;29;20427;-87
2021/10/19 01:11:59;;;;;;;18.65;15.18;;;;;;;;;;4906942;29;20467;-87
2021/10/19 01:14:25;;;;;;;17.23;14.27;;;;;;;;;;4907133;29;20943;-87
2021/10/19 01:16:54;;;;;;;16.90;13.88;;;;;;;;;;4907055;29;20423;-87
2021/10/19 01:19:23;;;;;;;20.23;14.40;;;;;;;;;;4906929;29;20418;-87
2021/10/19 01:21:54;;;;;;;18.00;14.45;;;;;;;;;;4905694;29;20648;-87
2021/10/19 01:24:21;;;;;;;19.50;14.25;;;;;;;;;;4907179;29;20470;-87
2021/10/19 01:26:49;;;;;;;16.88;14.30;;;;;;;;;;4903252;29;20641;-87
2021/10/19 01:29:16;;;;;;;17.02;13.65;;;;;;;;;;4905782;29;20846;-86
2021/10/19 01:31:47;;;;;;;17.08;13.23;;;;;;;;;;4906800;29;20773;-87
2021/10/19 01:34:14;;;;;;;17.15;13.55;;;;;;;;;;4909153;29;20840;-87
2021/10/19 01:36:41;;;;;;;16.10;13.15;;;;;;;;;;4906603;29;20419;-87
2021/10/19 01:39:09;;;;;;;15.48;12.90;;;;;;;;;;4905232;29;20425;-87
2021/10/19 01:41:36;;;;;;;15.80;13.10;;;;;;;;;;4910568;29;20778;-87
2021/10/19 01:44:03;;;;;;;15.52;13.15;;;;;;;;;;4906774;29;20427;-87
2021/10/19 01:46:30;;;;;;;15.02;11.93;;;;;;;;;;4906859;29;20434;-87
2021/10/19 01:48:57;;;;;;;14.77;11.98;;;;;;;;;;4906564;29;20431;-87
2021/10/19 01:51:24;;;;;;;14.45;12.10;;;;;;;;;;4906250;29;20442;-87
2021/10/19 01:53:51;;;;;;;14.18;11.75;;;;;;;;;;4906675;29;20802;-86
2021/10/19 01:56:20;;;;;;;14.32;11.40;;;;;;;;;;4905871;29;20416;-87
2021/10/19 01:58:47;;;;;;;15.48;11.73;;;;;;;;;;4907130;29;20426;-86
2021/10/19 02:01:14;;;;;;;15.73;12.57;;;;;;;;;;4905648;29;20444;-86
2021/10/19 02:03:41;;;;;;;14.98;12.13;;;;;;;;;;4912463;29;20427;-86
2021/10/19 02:06:08;;;;;;;13.95;11.18;;;;;;;;;;4907339;29;20423;-86
2021/10/19 02:08:35;;;;;;;14.13;11.52;;;;;;;;;;4905248;29;20836;-87
2021/10/19 02:11:02;;;;;;;13.07;11.60;;;;;;;;;;4913050;29;20913;-87
2021/10/19 02:13:30;;;;;;;13.47;11.30;;;;;;;;;;4909560;29;20462;-87
2021/10/19 02:15:57;;;;;;;14.18;12.02;;;;;;;;;;4909506;29;20423;-87
2021/10/19 02:18:24;;;;;;;13.52;11.32;;;;;;;;;;4910272;29;20415;-86
2021/10/19 02:20:50;;;;;;;16.85;12.43;;;;;;;;;;4917327;29;20423;-87
2021/10/19 02:23:17;;;;;;;14.95;11.55;;;;;;;;;;4910646;29;20499;-86
2021/10/19 02:25:44;;;;;;;13.35;11.02;;;;;;;;;;4910590;29;20404;-88
2021/10/19 02:28:11;;;;;;;14.10;11.63;;;;;;;;;;4911293;29;20699;-87
2021/10/19 02:30:39;;;;;;;15.05;11.38;;;;;;;;;;4911013;29;21162;-88
2021/10/19 02:33:06;;;;;;;14.37;11.70;;;;;;;;;;4911197;29;20844;-88
2021/10/19 02:35:33;;;;;;;13.32;10.90;;;;;;;;;;4910588;29;20426;-87
2021/10/19 02:38:00;;;;;;;14.02;10.75;;;;;;;;;;4912315;29;20414;-87
2021/10/19 02:40:27;;;;;;;12.48;10.63;;;;;;;;;;4907610;29;20423;-87
2021/10/19 02:42:54;;;;;;;11.82;10.60;;;;;;;;;;4910115;29;20427;-86
2021/10/19 02:45:21;;;;;;;13.18;10.93;;;;;;;;;;4910778;29;20411;-87
2021/10/19 02:47:49;;;;;;;12.68;10.50;;;;;;;;;;4909991;29;20419;-87
2021/10/19 02:50:16;;;;;;;13.00;10.43;;;;;;;;;;4909810;29;20428;-87
2021/10/19 02:52:43;;;;;;;12.50;10.65;;;;;;;;;;4909695;29;20503;-86
2021/10/19 02:55:12;;;;;;;12.63;10.23;;;;;;;;;;4903351;29;20425;-87
2021/10/19 02:57:39;;;;;;;11.93;10.57;;;;;;;;;;4907441;29;20765;-86
2021/10/19 03:00:08;;;;;;;13.55;10.70;;;;;;;;;;4909880;29;20851;-87
2021/10/19 03:02:35;;;;;;;12.85;10.23;;;;;;;;;;4910490;29;20423;-86
2021/10/19 03:05:03;;;;;;;13.48;10.55;;;;;;;;;;4910252;29;20923;-86
2021/10/19 03:07:30;;;;;;;12.18;9.98;;;;;;;;;;4909914;29;20513;-87
2021/10/19 03:09:57;;;;;;;12.35;10.52;;;;;;;;;;4910641;29;20546;-87
2021/10/19 03:12:24;;;;;;;12.27;10.00;;;;;;;;;;4909725;29;20407;-87
2021/10/19 03:14:51;;;;;;;12.93;10.05;;;;;;;;;;4910017;29;20817;-87
2021/10/19 03:17:18;;;;;;;13.87;10.60;;;;;;;;;;4910212;29;20467;-87
2021/10/19 03:19:45;;;;;;;12.10;10.63;;;;;;;;;;4909925;29;20422;-87
2021/10/19 03:22:13;;;;;;;15.65;9.93;;;;;;;;;;4909696;29;20411;-86
2021/10/19 03:24:40;;;;;;;12.13;10.45;;;;;;;;;;4909188;29;20484;-87
2021/10/19 03:27:07;;;;;;;12.63;10.05;;;;;;;;;;4910267;29;20415;-88
2021/10/19 03:29:34;;;;;;;13.27;10.05;;;;;;;;;;4909364;29;21136;-87
2021/10/19 03:32:01;;;;;;;12.18;10.23;;;;;;;;;;4907113;29;20773;-87
2021/10/19 03:34:28;;;;;;;12.27;10.30;;;;;;;;;;4909943;29;20816;-87
2021/10/19 03:36:54;;;;;;;12.48;10.15;;;;;;;;;;4909628;29;20454;-87
2021/10/19 03:39:23;;;;;;;13.18;9.70;;;;;;;;;;4909286;29;20412;-86
2021/10/19 03:41:50;;;;;;;11.88;9.68;;;;;;;;;;4909696;29;20422;-87
2021/10/19 03:44:17;;;;;;;12.10;9.32;;;;;;;;;;4909260;29;20423;-86
2021/10/19 03:46:44;;;;;;;11.95;9.50;;;;;;;;;;4909481;29;20910;-87
2021/10/19 03:49:11;;;;;;;11.57;9.25;;;;;;;;;;4909569;29;20432;-87
2021/10/19 03:51:38;;;;;;;12.63;9.60;;;;;;;;;;4901574;29;20427;-86
2021/10/19 03:54:05;;;;;;;12.07;9.38;;;;;;;;;;4909594;29;20423;-87
2021/10/19 03:56:33;;;;;;;12.35;9.30;;;;;;;;;;4908923;29;20431;-87
2021/10/19 03:59:00;;;;;;;12.38;9.48;;;;;;;;;;4909377;29;20450;-86
2021/10/19 04:01:27;;;;;;;16.38;9.48;;;;;;;;;;4909718;29;20424;-87
2021/10/19 04:03:54;;;;;;;10.32;8.90;;;;;;;;;;4905637;29;20436;-87
2021/10/19 04:06:21;;;;;;;12.75;9.05;;;;;;;;;;4904567;29;20423;-87
2021/10/19 04:08:48;;;;;;;12.13;8.83;;;;;;;;;;4915546;29;20462;-86
2021/10/19 04:11:15;;;;;;;12.38;9.20;;;;;;;;;;4907394;29;20422;-87
2021/10/19 04:13:44;;;;;;;13.80;9.57;;;;;;;;;;4908825;29;20415;-87
2021/10/19 04:16:11;;;;;;;11.23;9.18;;;;;;;;;;4907487;29;20750;-86
2021/10/19 04:18:38;;;;;;;10.82;9.18;;;;;;;;;;4908300;29;20420;-86
2021/10/19 04:21:05;;;;;;;14.97;9.60;;;;;;;;;;4908294;29;20411;-87
2021/10/19 04:23:32;;;;;;;13.75;9.55;;;;;;;;;;4907775;29;20411;-87
2021/10/19 04:25:58;;;;;;;15.88;9.30;;;;;;;;;;4908236;29;20515;-86
2021/10/19 04:28:25;;;;;;;13.40;9.10;;;;;;;;;;4908429;29;20471;-87
2021/10/19 04:30:53;;;;;;;14.27;9.70;;;;;;;;;;4908171;29;20431;-87
2021/10/19 04:33:20;;;;;;;13.60;9.18;;;;;;;;;;4907807;29;20415;-87
2021/10/19 04:35:47;;;;;;;13.90;9.33;;;;;;;;;;4905690;29;20426;-87
2021/10/19 04:38:15;;;;;;;12.32;9.30;;;;;;;;;;4908344;29;20415;-87
2021/10/19 04:40:42;;;;;;;13.30;9.35;;;;;;;;;;4907885;29;20412;-87
2021/10/19 04:43:09;;;;;;;13.50;9.60;;;;;;;;;;4908418;29;20491;-87
2021/10/19 04:45:36;;;;;;;11.63;9.07;;;;;;;;;;4910094;29;20430;-86
2021/10/19 04:48:05;;;;;;;12.30;8.60;;;;;;;;;;4908944;29;20477;-87
2021/10/19 04:50:34;;;;;;;13.03;8.70;;;;;;;;;;4906980;29;20816;-87
2021/10/19 04:53:01;;;;;;;12.40;9.30;;;;;;;;;;4908019;29;20419;-87
2021/10/19 04:55:28;;;;;;;11.10;8.48;;;;;;;;;;4907263;29;20422;-86
2021/10/19 04:57:54;;;;;;;10.68;8.45;;;;;;;;;;4903494;29;20422;-86
2021/10/19 05:00:21;;;;;;;10.63;8.35;;;;;;;;;;4908469;29;20500;-87
2021/10/19 05:02:49;;;;;;;13.35;9.38;;;;;;;;;;4906549;29;20757;-87
2021/10/19 05:05:19;;;;;;;13.53;9.70;;;;;;;;;;4908579;29;20441;-87
2021/10/19 05:07:46;;;;;;;12.68;9.55;;;;;;;;;;4907182;29;20412;-87
2021/10/19 05:10:13;;;;;;;12.47;8.87;;;;;;;;;;4906757;29;20435;-87
2021/10/19 05:12:40;;;;;;;12.07;9.20;;;;;;;;;;4906461;29;20407;-87
2021/10/19 05:15:09;;;;;;;10.95;8.75;;;;;;;;;;4908401;29;20424;-87
2021/10/19 05:17:36;;;;;;;11.27;9.32;;;;;;;;;;4907243;29;20909;-87
2021/10/19 05:20:04;;;;;;;12.75;9.35;;;;;;;;;;4907872;29;20426;-87
2021/10/19 05:22:32;;;;;;;10.55;8.70;;;;;;;;;;4903369;29;20412;-87
2021/10/19 05:24:59;;;;;;;11.73;9.07;;;;;;;;;;4906305;29;20467;-87
2021/10/19 05:27:26;;;;;;;11.15;9.15;;;;;;;;;;4905101;29;20422;-86
2021/10/19 05:29:53;;;;;;;10.32;8.68;;;;;;;;;;4905962;29;20917;-87
2021/10/19 05:32:19;;;;;;;11.00;8.43;;;;;;;;;;4906906;29;20421;-87
2021/10/19 05:34:46;;;;;;;11.45;8.80;;;;;;;;;;4906785;29;20459;-87
2021/10/19 05:37:13;;;;;;;13.18;9.05;;;;;;;;;;4907636;29;20411;-88
2021/10/19 05:39:42;;;;;;;11.93;8.43;;;;;;;;;;4908155;29;20423;-87
2021/10/19 05:42:09;;;;;;;10.98;8.55;;;;;;;;;;4907194;29;20502;-87
2021/10/19 05:44:36;;;;;;;11.40;8.73;;;;;;;;;;4906238;29;20777;-88
2021/10/19 05:47:03;;;;;;;13.02;9.32;;;;;;;;;;4909167;29;20443;-88
2021/10/19 05:49:30;;;;;;;11.65;8.77;;;;;;;;;;4909904;29;20427;-88
2021/10/19 05:51:57;;;;;;;12.10;8.80;;;;;;;;;;4906334;29;20455;-88
2021/10/19 05:54:24;;;;;;;10.55;8.60;;;;;;;;;;4909068;29;20837;-88
2021/10/19 05:56:53;;;;;;;10.75;8.75;;;;;;;;;;4911147;29;20424;-88
2021/10/19 05:59:20;;;;;;;10.80;9.27;;;;;;;;;;4909391;29;20447;-87
2021/10/19 06:01:48;;;;;;;11.82;9.35;;;;;;;;;;4909324;29;20454;-88
2021/10/19 06:04:15;;;;;;;14.80;9.68;;;;;;;;;;4909253;29;20758;-87
2021/10/19 06:06:41;;;;;;;13.38;9.68;;;;;;;;;;4906047;29;20412;-89
2021/10/19 06:09:08;;;;;;;16.02;9.60;;;;;;;;;;4908875;29;20417;-88
2021/10/19 06:11:35;;;;;;;14.40;9.73;;;;;;;;;;4909444;29;20428;-88
2021/10/19 06:14:05;;;;;;;15.32;10.13;;;;;;;;;;4909377;29;20412;-88
2021/10/19 06:16:32;;;;;;;11.90;10.25;;;;;;;;;;4909592;29;20459;-88
2021/10/19 06:18:59;;;;;;;13.82;10.15;;;;;;;;;;4909973;29;20769;-88
2021/10/19 06:21:26;;;;;;;13.60;10.70;;;;;;;;;;4909745;29;20416;-88
2021/10/19 06:23:53;;;;;;;14.32;10.52;;;;;;;;;;4910315;29;20415;-87
2021/10/19 06:26:20;;;;;;;13.57;10.57;;;;;;;;;;4910763;29;20412;-87
2021/10/19 06:28:47;;;;;;;13.97;10.57;;;;;;;;;;4910140;29;20896;-88
2021/10/19 06:31:15;;;;;;;13.77;10.20;;;;;;;;;;4907849;29;20432;-87
2021/10/19 06:33:42;;;;;;;14.93;10.70;;;;;;;;;;4910527;29;20423;-87
2021/10/19 06:36:09;;;;;;;14.63;11.07;;;;;;;;;;4911150;29;20414;-88
2021/10/19 06:38:36;;;;;;;16.08;10.65;;;;;;;;;;4910216;29;20420;-88
2021/10/19 06:41:03;;;;;;;15.77;10.70;;;;;;;;;;4905964;29;20523;-88
2021/10/19 06:43:30;;;;;;;14.40;10.73;;;;;;;;;;4911465;29;20415;-88
2021/10/19 06:45:56;;;;;;;36.28;12.43;;;;;;;;;;4910423;29;20458;-88
2021/10/19 06:48:25;;;;;;;28.25;11.38;;;;;;;;;;4909858;29;20415;-87
2021/10/19 06:50:52;;;;;;;13.73;10.65;;;;;;;;;;4907034;29;20431;-88
2021/10/19 06:53:20;;;;;;;15.43;11.10;;;;;;;;;;4910846;29;20800;-88
2021/10/19 06:55:47;;;;;;;17.88;11.30;;;;;;;;;;4908408;29;20776;-88
2021/10/19 06:58:13;;;;;;;16.77;11.32;;;;;;;;;;4910301;29;20439;-88
2021/10/19 07:00:40;;;;;;;13.63;10.80;;;;;;;;;;4910643;29;20423;-89
2021/10/19 07:03:07;;;;;;;43.47;14.90;;;;;;;;;;4910719;29;20420;-88
2021/10/19 07:05:35;;;;;;;15.07;10.73;;;;;;;;;;4910393;29;20415;-88
2021/10/19 07:08:05;;;;;;;14.27;10.77;;;;;;;;;;4910545;29;20426;-88
2021/10/19 07:10:32;;;;;;;14.65;10.68;;;;;;;;;;4910141;29;20428;-86
2021/10/19 07:12:59;;;;;;;15.00;10.88;;;;;;;;;;4912667;29;20984;-88
2021/10/19 07:15:26;;;;;;;14.00;10.80;;;;;;;;;;4910985;29;20419;-87
2021/10/19 07:17:53;;;;;;;14.43;11.13;;;;;;;;;;4922121;29;21467;-88
2021/10/19 07:20:20;;;;;;;16.97;10.57;;;;;;;;;;4926104;29;20419;-88
2021/10/19 07:22:49;;;;;;;18.83;11.40;;;;;;;;;;4911338;29;20943;-88
2021/10/19 07:25:16;;;;;;;16.77;11.57;;;;;;;;;;4908492;29;20422;-88
2021/10/19 07:27:44;;;;;;;15.68;11.05;;;;;;;;;;4908449;29;20407;-88
2021/10/19 07:30:12;;;;;;;15.40;10.80;;;;;;;;;;4909163;29;20518;-89
2021/10/19 07:32:39;;;;;;;15.55;11.00;;;;;;;;;;4910450;29;20415;-88
2021/10/19 07:35:06;;;;;;;14.47;11.30;;;;;;;;;;4909877;29;20456;-88
2021/10/19 07:37:36;;;;;;;16.45;11.70;;;;;;;;;;4910659;29;20437;-89
2021/10/19 07:40:07;;;;;;;17.67;11.55;;;;;;;;;;4910311;29;20487;-86
2021/10/19 07:42:35;;;;;;;15.20;12.02;;;;;;;;;;4909217;29;20424;-89
2021/10/19 07:45:02;;;;;;;14.20;11.77;;;;;;;;;;4907780;29;20915;-89
2021/10/19 07:47:29;;;;;;;18.20;11.77;;;;;;;;;;4909307;29;20419;-89
2021/10/19 07:49:55;;;;;;;12.73;10.07;;;;;;;;;;4910126;29;20427;-87
2021/10/19 07:52:22;;;;;;;15.68;10.73;;;;;;;;;;4906628;29;20414;-87
2021/10/19 07:54:49;;;;;;;18.65;11.02;;;;;;;;;;4909866;29;20423;-88
2021/10/19 07:57:18;;;;;;;17.75;11.68;;;;;;;;;;4909759;29;20444;-88
2021/10/19 07:59:44;;;;;;;16.58;11.13;;;;;;;;;;4906352;29;20418;-89
2021/10/19 08:02:11;;;;;;;16.90;10.98;;;;;;;;;;4900279;29;20419;-89
2021/10/19 08:04:38;;;;;;;13.70;10.30;;;;;;;;;;4908993;29;20416;-88
2021/10/19 08:07:05;;;;;;;13.32;10.50;;;;;;;;;;4909396;29;20418;-89
2021/10/19 08:09:33;;;;;;;12.80;10.35;;;;;;;;;;4906079;29;20907;-88
2021/10/19 08:11:59;;;;;;;14.75;10.48;;;;;;;;;;4909884;29;20439;-88
2021/10/19 08:14:28;;;;;;;14.60;10.02;;;;;;;;;;4910592;29;20430;-89
2021/10/19 08:16:55;;;;;;;13.48;10.40;;;;;;;;;;4909293;29;20431;-88
2021/10/19 08:19:22;;;;;;;15.25;10.52;;;;;;;;;;4907990;29;20979;-89
2021/10/19 08:21:49;;;;;;;16.02;9.60;;;;;;;;;;4908809;29;21045;-89
2021/10/19 08:24:16;;;;;;;13.52;10.10;;;;;;;;;;4909304;29;20416;-89
2021/10/19 08:26:43;;;;;;;11.77;9.73;;;;;;;;;;4909607;29;20423;-89
2021/10/19 08:29:10;;;;;;;15.93;10.48;;;;;;;;;;4910934;29;20415;-89
2021/10/19 08:31:38;;;;;;;16.83;10.80;;;;;;;;;;4908829;29;20772;-89
2021/10/19 08:34:05;;;;;;;14.52;10.75;;;;;;;;;;4904992;29;20412;-88
2021/10/19 08:36:32;;;;;;;13.18;11.18;;;;;;;;;;4908566;29;20434;-88
2021/10/19 08:38:59;;;;;;;16.48;11.60;;;;;;;;;;4909139;29;20415;-87
2021/10/19 08:41:30;;;;;;;14.20;11.02;;;;;;;;;;4908812;29;20880;-87
2021/10/19 08:43:57;;;;;;;12.95;10.20;;;;;;;;;;4908683;29;20967;-87
2021/10/19 08:46:24;;;;;;;13.48;11.00;;;;;;;;;;4908899;29;20795;-87
2021/10/19 08:48:52;;;;;;;18.20;10.35;;;;;;;;;;4910913;29;20419;-87
2021/10/19 08:51:19;;;;;;;15.33;10.40;;;;;;;;;;4907572;29;20442;-88
2021/10/19 08:53:46;;;;;;;12.65;9.80;;;;;;;;;;4907461;29;20411;-87
2021/10/19 08:56:13;;;;;;;12.82;9.75;;;;;;;;;;4908664;29;20426;-87
2021/10/19 08:58:40;;;;;;;10.90;8.80;;;;;;;;;;4908035;29;20419;-87
2021/10/19 09:01:08;;;;;;;13.20;9.77;;;;;;;;;;4908998;29;20577;-86
2021/10/19 09:03:35;;;;;;;12.27;9.43;;;;;;;;;;4908917;29;20497;-87
2021/10/19 09:06:05;;;;;;;15.20;9.38;;;;;;;;;;4908386;29;20510;-87
2021/10/19 09:08:32;;;;;;;15.13;9.23;;;;;;;;;;4910741;29;20408;-87
2021/10/19 09:10:58;;;;;;;12.18;9.88;;;;;;;;;;4910319;29;20444;-88
2021/10/19 09:13:25;;;;;;;13.25;9.98;;;;;;;;;;4911076;29;20411;-87
2021/10/19 09:15:52;;;;;;;13.23;8.88;;;;;;;;;;4908450;29;20435;-87
2021/10/19 09:18:21;;;;;;;10.77;8.15;;;;;;;;;;4911931;29;20430;-86
2021/10/19 09:20:51;;;;;;;11.95;8.65;;;;;;;;;;4908215;29;20475;-87
2021/10/19 09:23:21;;;;;;;11.35;9.02;;;;;;;;;;4915171;29;20424;-87
2021/10/19 09:25:50;;;;;;;11.40;8.30;;;;;;;;;;4906229;29;20927;-87
2021/10/19 09:28:34;;;;;;;9.45;7.43;;;;;;;;;;4911378;29;20775;-86
2021/10/19 09:31:01;;;;;;;8.23;6.80;;;;;;;;;;4909205;29;20494;-87
2021/10/19 09:33:28;;;;;;;8.82;7.53;;;;;;;;;;4911955;29;20497;-88
2021/10/19 09:35:58;;;;;;;10.40;8.00;;;;;;;;;;4904408;29;20420;-88
2021/10/19 09:38:27;;;;;;;10.45;7.28;;;;;;;;;;4911357;29;20415;-88
2021/10/19 09:40:56;;;;;;;11.10;7.85;;;;;;;;;;4909011;29;20427;-88
2021/10/19 09:43:25;;;;;;;9.65;7.68;;;;;;;;;;4912135;29;20514;-88
2021/10/19 09:45:56;;;;;;;9.93;7.80;;;;;;;;;;4912931;29;20431;-87
2021/10/19 09:48:27;;;;;;;10.30;7.90;;;;;;;;;;4911190;29;20420;-88
2021/10/19 09:50:55;;;;;;;8.40;7.50;;;;;;;;;;4910302;29;20722;-87
2021/10/19 09:53:24;;;;;;;10.15;7.97;;;;;;;;;;4912281;29;20495;-88
2021/10/19 09:55:54;;;;;;;9.25;7.78;;;;;;;;;;4909442;29;20443;-87
2021/10/19 09:58:23;;;;;;;10.77;8.32;;;;;;;;;;4909454;29;20420;-87
2021/10/19 10:00:50;;;;;;;9.95;8.00;;;;;;;;;;4909399;29;20407;-88
2021/10/19 10:03:17;;;;;;;9.43;8.07;;;;;;;;;;4909782;29;20711;-87
2021/10/19 10:05:44;;;;;;;12.30;8.75;;;;;;;;;;4910264;29;20422;-88
2021/10/19 10:08:14;;;;;;;10.13;8.43;;;;;;;;;;4910797;29;20423;-87
2021/10/19 10:10:41;;;;;;;9.70;8.30;;;;;;;;;;4912821;29;20459;-88
2021/10/19 10:13:17;;;;;;;10.88;8.35;;;;;;;;;;4912159;29;20758;-87
2021/10/19 10:15:44;;;;;;;10.52;8.60;;;;;;;;;;4905980;29;20404;-88
2021/10/19 10:18:12;;;;;;;11.15;8.45;;;;;;;;;;4910785;29;21004;-88
2021/10/19 10:20:40;;;;;;;11.05;8.88;;;;;;;;;;4910350;29;20694;-88
2021/10/19 10:23:19;;;;;;;10.15;8.98;;;;;;;;;;4910447;29;20738;-88
2021/10/19 10:25:47;;;;;;;11.15;8.98;;;;;;;;;;4910643;29;20756;-88
2021/10/19 10:28:24;;;;;;;11.15;9.02;;;;;;;;;;4910099;29;20531;-88
2021/10/19 10:30:51;;;;;;;12.73;9.48;;;;;;;;;;4907860;29;20777;-87
2021/10/19 10:33:18;;;;;;;13.00;9.95;;;;;;;;;;4908678;29;20403;-88
2021/10/19 10:35:48;;;;;;;12.90;10.07;;;;;;;;;;4913792;29;20422;-88
2021/10/19 10:38:15;;;;;;;11.03;9.53;;;;;;;;;;4912093;29;20924;-88
2021/10/19 10:40:44;;;;;;;12.48;9.68;;;;;;;;;;4910279;29;20416;-87
2021/10/19 10:43:22;;;;;;;13.18;10.30;;;;;;;;;;4915784;29;20409;-88
2021/10/19 10:46:01;;;;;;;13.93;10.77;;;;;;;;;;4907562;29;20420;-88
2021/10/19 10:48:29;;;;;;;13.80;10.60;;;;;;;;;;4909521;29;20892;-89
2021/10/19 10:50:56;;;;;;;15.68;11.52;;;;;;;;;;4910691;29;20852;-89
2021/10/19 10:53:31;;;;;;;13.82;11.30;;;;;;;;;;4912028;29;20434;-89
2021/10/19 10:55:58;;;;;;;17.13;13.50;;;;;;;;;;4908106;29;20924;-88
2021/10/19 10:58:29;;;;;;;15.45;12.48;;;;;;;;;;4911368;29;20423;-89
2021/10/19 11:00:56;;;;;;;15.30;12.93;;;;;;;;;;4910944;29;20426;-89
2021/10/19 11:03:23;;;;;;;16.90;12.57;;;;;;;;;;4911813;29;20423;-89
2021/10/19 11:05:53;;;;;;;15.77;13.10;;;;;;;;;;4913388;29;20411;-89
2021/10/19 11:08:28;;;;;;;15.85;12.77;;;;;;;;;;4908437;29;20422;-87
2021/10/19 11:11:07;;;;;;;14.02;12.52;;;;;;;;;;4922717;29;20625;-88
2021/10/19 11:13:55;;;;;;;16.10;13.70;;;;;;;;;;4927776;29;20420;-87
2021/10/19 11:16:30;;;;;;;16.70;13.95;;;;;;;;;;4911668;29;20448;-88
2021/10/19 11:18:58;;;;;;;17.65;14.20;;;;;;;;;;4905680;29;20415;-88
2021/10/19 11:21:25;;;;;;;16.33;13.93;;;;;;;;;;4908062;29;20889;-88
2021/10/19 11:23:52;;;;;;;15.93;13.85;;;;;;;;;;4908504;29;20420;-87
2021/10/19 11:26:19;;;;;;;16.85;13.82;;;;;;;;;;4907143;29;20813;-87
2021/10/19 11:28:47;;;;;;;17.92;14.05;;;;;;;;;;4907155;29;20411;-87
2021/10/19 11:31:16;;;;;;;16.10;13.60;;;;;;;;;;4909316;29;20427;-88
2021/10/19 11:33:44;;;;;;;18.57;14.97;;;;;;;;;;4907365;29;20472;-87
2021/10/19 11:36:14;;;;;;;20.53;16.40;;;;;;;;;;4910165;29;20886;-88
2021/10/19 11:38:41;;;;;;;20.17;16.08;;;;;;;;;;4907013;29;20422;-87
2021/10/19 11:41:10;;;;;;;21.20;16.92;;;;;;;;;;4907564;29;20982;-87
2021/10/19 11:43:40;;;;;;;22.27;16.35;;;;;;;;;;4907105;29;20429;-88
2021/10/19 11:46:10;;;;;;;24.48;16.75;;;;;;;;;;4905533;29;20493;-87
2021/10/19 11:48:38;;;;;;;23.48;17.48;;;;;;;;;;4908094;29;20408;-86
2021/10/19 11:51:08;;;;;;;21.75;17.00;;;;;;;;;;4909587;29;20405;-88
2021/10/19 11:53:36;;;;;;;23.73;17.55;;;;;;;;;;4908953;29;20412;-88
2021/10/19 11:56:04;;;;;;;23.38;17.90;;;;;;;;;;4905465;29;20419;-87
2021/10/19 11:58:32;;;;;;;23.48;17.30;;;;;;;;;;4906346;29;20423;-88
2021/10/19 12:00:59;;;;;;;23.77;18.05;;;;;;;;;;4921518;23;20462;-96
2021/10/19 12:03:32;;;;;;;23.17;18.90;;;;;;;;;;4908667;29;20990;-95
2021/10/19 12:05:59;;;;;;;27.33;19.27;;;;;;;;;;4908977;29;20419;-95
2021/10/19 12:08:31;;;;;;;26.63;20.25;;;;;;;;;;4910294;29;20418;-95
2021/10/19 12:11:08;;;;;;;27.67;20.80;;;;;;;;;;4906331;29;20423;-95
2021/10/19 12:13:36;;;;;;;29.38;21.52;;;;;;;;;;4912740;29;20431;-95
2021/10/19 12:16:03;;;;;;;28.02;21.70;;;;;;;;;;4911909;29;20411;-95
2021/10/19 12:18:40;;;;;;;27.98;21.33;;;;;;;;;;4912773;29;20422;-95
2021/10/19 12:21:07;;;;;;;29.70;22.35;;;;;;;;;;4914015;29;20429;-95
2021/10/19 12:23:34;;;;;;;27.90;21.23;;;;;;;;;;4912381;29;20478;-95
2021/10/19 12:26:03;;;;;;;32.25;22.40;;;;;;;;;;4909755;29;20494;-95
2021/10/19 12:28:31;;;;;;;29.92;21.45;;;;;;;;;;4909971;29;20426;-94
2021/10/19 12:30:59;;;;;;;30.92;21.45;;;;;;;;;;4906876;29;20415;-95
2021/10/19 12:33:28;;;;;;;29.25;22.20;;;;;;;;;;4907519;29;20729;-95
2021/10/19 12:36:00;;;;;;;29.60;22.45;;;;;;;;;;4910552;29;20490;-94
2021/10/19 12:38:30;;;;;;;29.10;21.02;;;;;;;;;;4909670;29;20399;-94
2021/10/19 12:41:07;;;;;;;30.02;21.45;;;;;;;;;;4909141;29;20423;-95
2021/10/19 12:43:34;;;;;;;28.25;21.30;;;;;;;;;;4913635;29;20430;-95
2021/10/19 12:46:02;;;;;;;29.80;22.25;;;;;;;;;;4908715;29;20431;-95
2021/10/19 12:48:32;;;;;;;32.28;24.38;;;;;;;;;;4902388;29;20425;-96
2021/10/19 12:51:01;;;;;;;29.33;23.00;;;;;;;;;;4906521;29;20727;-95
2021/10/19 12:53:28;;;;;;;34.57;25.10;;;;;;;;;;4905274;29;20432;-95
2021/10/19 12:55:56;;;;;;;35.05;24.70;;;;;;;;;;4907812;29;20407;-95
2021/10/19 12:58:23;;;;;;;33.13;25.30;;;;;;;;;;4907738;29;20427;-96
2021/10/19 13:00:50;;;;;;;33.30;25.25;;;;;;;;;;4906125;29;20431;-96
2021/10/19 13:03:17;;;;;;;33.72;25.67;;;;;;;;;;4909049;29;20806;-95
2021/10/19 13:05:45;;;;;;;33.43;24.63;;;;;;;;;;4906952;29;20415;-95
2021/10/19 13:08:13;;;;;;;34.88;25.98;;;;;;;;;;4908135;29;20420;-95
2021/10/19 13:10:40;;;;;;;36.33;27.58;;;;;;;;;;4908992;29;20407;-95
2021/10/19 13:13:07;;;;;;;37.27;27.83;;;;;;;;;;4908667;29;20984;-96
2021/10/19 13:15:36;;;;;;;33.80;27.02;;;;;;;;;;4906084;29;20923;-95
2021/10/19 13:18:03;;;;;;;35.70;28.13;;;;;;;;;;4907971;29;20429;-96
2021/10/19 13:20:30;;;;;;;37.90;27.97;;;;;;;;;;4908519;29;20419;-96
2021/10/19 13:22:57;;;;;;;38.60;28.90;;;;;;;;;;4904996;29;20435;-95
2021/10/19 13:25:26;;;;;;;37.83;28.27;;;;;;;;;;4906596;29;20423;-95
2021/10/19 13:27:54;;;;;;;42.40;28.77;;;;;;;;;;4907031;29;20427;-95
2021/10/19 13:30:21;;;;;;;36.92;28.30;;;;;;;;;;4906806;29;20423;-96
2021/10/19 13:32:51;;;;;;;37.60;28.58;;;;;;;;;;4904135;29;20472;-94
2021/10/19 13:35:18;;;;;;;36.80;28.73;;;;;;;;;;4909436;29;20449;-96
2021/10/19 13:37:45;;;;;;;37.93;29.23;;;;;;;;;;4910425;29;20424;-96
2021/10/19 13:40:13;;;;;;;39.77;28.33;;;;;;;;;;4911829;29;20423;-96
2021/10/19 13:42:42;;;;;;;34.63;27.73;;;;;;;;;;4906850;29;20487;-95
2021/10/19 13:45:10;;;;;;;40.97;28.75;;;;;;;;;;4913880;29;20469;-96
2021/10/19 13:47:37;;;;;;;37.13;28.40;;;;;;;;;;4909139;29;20415;-96
2021/10/19 13:50:06;;;;;;;36.90;27.88;;;;;;;;;;4910552;29;20424;-95
2021/10/19 13:52:33;;;;;;;36.83;28.05;;;;;;;;;;4907880;29;20439;-95
2021/10/19 13:55:00;;;;;;;40.67;29.40;;;;;;;;;;4907352;29;20427;-96
2021/10/19 13:57:27;;;;;;;36.20;28.38;;;;;;;;;;4909299;29;20426;-95
2021/10/19 13:59:55;;;;;;;37.50;28.63;;;;;;;;;;4909030;29;20867;-95
2021/10/19 14:02:22;;;;;;;39.58;28.95;;;;;;;;;;4908540;29;20415;-95
2021/10/19 14:04:49;;;;;;;36.80;28.65;;;;;;;;;;4908528;29;20426;-96
2021/10/19 14:07:16;;;;;;;41.10;30.58;;;;;;;;;;4906748;29;20435;-96
2021/10/19 14:09:44;;;;;;;39.92;29.63;;;;;;;;;;4913045;29;20434;-95
2021/10/19 14:12:11;;;;;;;41.22;28.27;;;;;;;;;;4915535;29;20416;-95
2021/10/19 14:14:38;;;;;;;38.27;29.23;;;;;;;;;;4913209;29;20523;-96
2021/10/19 14:17:06;;;;;;;37.75;28.30;;;;;;;;;;4915199;29;20896;-96
2021/10/19 14:19:33;;;;;;;38.50;28.63;;;;;;;;;;4918144;29;20412;-95
2021/10/19 14:22:01;;;;;;;36.33;28.08;;;;;;;;;;4915769;29;20478;-96
2021/10/19 14:24:28;;;;;;;40.05;29.98;;;;;;;;;;4921440;29;20436;-96